East Berkshire, Vermont
Current Conditions -  °F | °C
As of 1:55 AM on Friday 28 Nov 2014 (Local Time) from KFSO Reporting Station
Light Snow Light Snow  
Wind Chill: 25°   Ceiling: 2200
Heat Index: 25°   Visibility: 3mi
Dew Point: 23°   Wind: 0mph
Humidity: 94%   Direction: NA
Pressure: 30.04"   Gusts: NA
Location:  44.94°N, 72.71°W
Report Text: KFSO 280655Z AUTO 00000KT 3SM -SN SCT017 BKN022 OVC028 M04/M05 A3004 RMK AO2 T10411050
Loading
Personal Weather Stations






























Interactive Weather Map New forecast layout! Learn more

10-Day Weather Forecast

Advertisements
Track Severe Weather on mobile